FIN24K EFHK-EFKT
Flight info
| Callsign | FIN24K |
|---|---|
| Flight time | 1h 12m |
| Altitude | 38000 |
| Route | TEVRU Y75 EVIMI |
| Aircraft | A320/M-SDE3FGHIRWY/LB1 |
Departure
| Time | 2026-04-16 10:06 |
|---|---|
| Airport | Helsinki Vantaa Airport (EFHK) |
Arrival
| Time | 2026-04-16 11:19 |
|---|---|
| Airport | Kittilä International Airport (EFKT) |
| Time | Latitude | Longitude | Altitude | Speed | Heading |
|---|---|---|---|---|---|
| 2026-04-16 09:47 | 60.31871 | 24.96546 | 169 ft | 0 kts | 137° |
| 2026-04-16 09:59 | 60.31887 | 24.96517 | 167 ft | 4 kts | 146° |
| 2026-04-16 10:00 | 60.31911 | 24.96493 | 167 ft | 4 kts | 170° |
| 2026-04-16 10:00 | 60.31934 | 24.96498 | 167 ft | 3 kts | 223° |
| 2026-04-16 10:00 | 60.31940 | 24.96510 | 167 ft | 0 kts | 227° |
| 2026-04-16 10:02 | 60.31938 | 24.96507 | 167 ft | 3 kts | 227° |
| 2026-04-16 10:02 | 60.31895 | 24.96411 | 167 ft | 11 kts | 227° |
| 2026-04-16 10:02 | 60.31854 | 24.96284 | 167 ft | 14 kts | 254° |
| 2026-04-16 10:03 | 60.31907 | 24.96074 | 167 ft | 19 kts | 310° |
| 2026-04-16 10:03 | 60.31887 | 24.95867 | 169 ft | 16 kts | 227° |
| 2026-04-16 10:03 | 60.31796 | 24.95667 | 170 ft | 21 kts | 227° |
| 2026-04-16 10:03 | 60.31693 | 24.95441 | 171 ft | 23 kts | 228° |
| 2026-04-16 10:04 | 60.31582 | 24.95195 | 170 ft | 25 kts | 227° |
| 2026-04-16 10:04 | 60.31462 | 24.94932 | 168 ft | 27 kts | 227° |
| 2026-04-16 10:04 | 60.31330 | 24.94639 | 161 ft | 29 kts | 227° |
| 2026-04-16 10:04 | 60.31203 | 24.94360 | 159 ft | 28 kts | 227° |
| 2026-04-16 10:05 | 60.31072 | 24.94073 | 158 ft | 18 kts | 227° |
| 2026-04-16 10:05 | 60.31042 | 24.93861 | 159 ft | 16 kts | 284° |
| 2026-04-16 10:05 | 60.31116 | 24.93695 | 157 ft | 17 kts | 330° |
| 2026-04-16 10:05 | 60.31174 | 24.93735 | 158 ft | 0 kts | 47° |
| 2026-04-16 10:06 | 60.31252 | 24.93907 | 158 ft | 56 kts | 47° |
| 2026-04-16 10:06 | 60.31723 | 24.94944 | 172 ft | 139 kts | 47° |
| 2026-04-16 10:06 | 60.32454 | 24.96546 | 722 ft | 159 kts | 46° |
| 2026-04-16 10:06 | 60.33222 | 24.98216 | 1668 ft | 164 kts | 50° |
| 2026-04-16 10:07 | 60.34024 | 24.99995 | 2156 ft | 182 kts | 50° |
| 2026-04-16 10:07 | 60.34926 | 25.02009 | 2532 ft | 205 kts | 51° |
| 2026-04-16 10:07 | 60.35931 | 25.04251 | 2927 ft | 229 kts | 50° |
| 2026-04-16 10:07 | 60.37044 | 25.06725 | 3630 ft | 243 kts | 51° |
| 2026-04-16 10:08 | 60.38201 | 25.09285 | 4517 ft | 249 kts | 51° |
| 2026-04-16 10:08 | 60.39489 | 25.11723 | 5412 ft | 260 kts | 35° |
| 2026-04-16 10:08 | 60.41217 | 25.12880 | 6268 ft | 274 kts | 8° |
| 2026-04-16 10:08 | 60.43171 | 25.12997 | 7148 ft | 280 kts | 4° |
| 2026-04-16 10:09 | 60.45143 | 25.13051 | 7932 ft | 287 kts | 3° |
| 2026-04-16 10:09 | 60.47164 | 25.13099 | 8742 ft | 294 kts | 3° |
| 2026-04-16 10:09 | 60.49234 | 25.13121 | 9522 ft | 302 kts | 359° |
| 2026-04-16 10:09 | 60.51309 | 25.12367 | 10251 ft | 311 kts | 342° |
| 2026-04-16 10:10 | 60.53330 | 25.10583 | 10787 ft | 326 kts | 335° |
| 2026-04-16 10:10 | 60.55453 | 25.08523 | 11064 ft | 348 kts | 335° |
| 2026-04-16 10:10 | 60.57675 | 25.06359 | 11681 ft | 357 kts | 335° |
| 2026-04-16 10:10 | 60.59929 | 25.04159 | 12444 ft | 361 kts | 335° |
| 2026-04-16 10:11 | 60.62186 | 25.01959 | 13227 ft | 365 kts | 335° |
| 2026-04-16 10:11 | 60.64490 | 24.99722 | 13981 ft | 369 kts | 335° |
| 2026-04-16 10:11 | 60.66817 | 24.97463 | 14664 ft | 372 kts | 335° |
| 2026-04-16 10:11 | 60.69168 | 24.95165 | 15330 ft | 375 kts | 335° |
| 2026-04-16 10:12 | 60.71534 | 24.92847 | 15988 ft | 379 kts | 335° |
| 2026-04-16 10:12 | 60.73922 | 24.90506 | 16650 ft | 383 kts | 335° |
| 2026-04-16 10:12 | 60.76337 | 24.88142 | 17311 ft | 386 kts | 335° |
| 2026-04-16 10:12 | 60.78779 | 24.85776 | 17951 ft | 390 kts | 338° |
| 2026-04-16 10:13 | 60.81363 | 24.84020 | 18565 ft | 392 kts | 348° |
| 2026-04-16 10:13 | 60.84070 | 24.83274 | 19110 ft | 394 kts | 359° |
| 2026-04-16 10:13 | 60.86809 | 24.83561 | 19721 ft | 395 kts | 8° |
| 2026-04-16 10:13 | 60.89554 | 24.84234 | 20298 ft | 399 kts | 8° |
| 2026-04-16 10:14 | 60.92335 | 24.84903 | 20873 ft | 402 kts | 8° |
| 2026-04-16 10:14 | 60.95099 | 24.85554 | 21452 ft | 405 kts | 7° |
| 2026-04-16 10:14 | 60.97922 | 24.86216 | 22028 ft | 408 kts | 7° |
| 2026-04-16 10:14 | 61.00763 | 24.86886 | 22522 ft | 413 kts | 7° |
| 2026-04-16 10:15 | 61.03630 | 24.87567 | 23086 ft | 415 kts | 7° |
| 2026-04-16 10:15 | 61.06507 | 24.88252 | 23631 ft | 418 kts | 7° |
| 2026-04-16 10:15 | 61.09368 | 24.88931 | 24063 ft | 422 kts | 7° |
| 2026-04-16 10:15 | 61.12294 | 24.89631 | 24485 ft | 424 kts | 7° |
| 2026-04-16 10:16 | 61.15231 | 24.90335 | 24961 ft | 425 kts | 7° |
| 2026-04-16 10:16 | 61.18218 | 24.91055 | 25353 ft | 428 kts | 7° |
| 2026-04-16 10:16 | 61.21150 | 24.91765 | 25724 ft | 431 kts | 7° |
| 2026-04-16 10:16 | 61.24174 | 24.92500 | 26132 ft | 433 kts | 7° |
| 2026-04-16 10:17 | 61.27135 | 24.93215 | 26510 ft | 436 kts | 7° |
| 2026-04-16 10:17 | 61.30156 | 24.93941 | 26850 ft | 439 kts | 7° |
| 2026-04-16 10:17 | 61.33199 | 24.94676 | 27244 ft | 441 kts | 7° |
| 2026-04-16 10:17 | 61.36254 | 24.95417 | 27621 ft | 443 kts | 7° |
| 2026-04-16 10:18 | 61.39327 | 24.96164 | 27960 ft | 446 kts | 7° |
| 2026-04-16 10:18 | 61.42419 | 24.96919 | 28336 ft | 449 kts | 7° |
| 2026-04-16 10:18 | 61.45527 | 24.97682 | 28693 ft | 451 kts | 6° |
| 2026-04-16 10:18 | 61.48646 | 24.98446 | 29062 ft | 452 kts | 6° |
| 2026-04-16 10:19 | 61.51779 | 24.99217 | 29407 ft | 454 kts | 6° |
| 2026-04-16 10:19 | 61.54928 | 24.99997 | 29720 ft | 457 kts | 6° |
| 2026-04-16 10:19 | 61.58091 | 25.00784 | 30015 ft | 459 kts | 6° |
| 2026-04-16 10:19 | 61.61279 | 25.01515 | 30298 ft | 462 kts | 3° |
| 2026-04-16 10:20 | 61.64498 | 25.01686 | 30549 ft | 464 kts | 0° |
| 2026-04-16 10:20 | 61.67730 | 25.01786 | 30801 ft | 465 kts | 0° |
| 2026-04-16 10:20 | 61.70970 | 25.01892 | 31064 ft | 466 kts | 0° |
| 2026-04-16 10:20 | 61.74219 | 25.02010 | 31311 ft | 468 kts | 0° |
| 2026-04-16 10:21 | 61.77473 | 25.02141 | 31555 ft | 468 kts | 360° |
| 2026-04-16 10:21 | 61.80721 | 25.02271 | 31944 ft | 465 kts | 360° |
| 2026-04-16 10:21 | 61.83951 | 25.02401 | 32299 ft | 463 kts | 359° |
| 2026-04-16 10:21 | 61.87170 | 25.02531 | 32651 ft | 462 kts | 359° |
| 2026-04-16 10:22 | 61.90377 | 25.02662 | 33002 ft | 460 kts | 359° |
| 2026-04-16 10:22 | 61.93573 | 25.02787 | 33353 ft | 459 kts | 359° |
| 2026-04-16 10:22 | 61.96759 | 25.02908 | 33707 ft | 457 kts | 359° |
| 2026-04-16 10:22 | 61.99933 | 25.03028 | 34053 ft | 456 kts | 359° |
| 2026-04-16 10:23 | 62.03098 | 25.03145 | 34368 ft | 454 kts | 359° |
| 2026-04-16 10:23 | 62.06256 | 25.03264 | 34649 ft | 454 kts | 359° |
| 2026-04-16 10:23 | 62.09409 | 25.03386 | 34931 ft | 452 kts | 359° |
| 2026-04-16 10:23 | 62.12548 | 25.03504 | 35245 ft | 450 kts | 359° |
| 2026-04-16 10:24 | 62.15678 | 25.03621 | 35512 ft | 449 kts | 359° |
| 2026-04-16 10:24 | 62.18799 | 25.03738 | 35754 ft | 449 kts | 359° |
| 2026-04-16 10:24 | 62.21921 | 25.03857 | 36000 ft | 448 kts | 360° |
| 2026-04-16 10:24 | 62.25038 | 25.03981 | 36205 ft | 448 kts | 359° |
| 2026-04-16 10:25 | 62.28158 | 25.04109 | 36421 ft | 448 kts | 359° |
| 2026-04-16 10:25 | 62.31273 | 25.04234 | 36639 ft | 448 kts | 360° |
| 2026-04-16 10:25 | 62.34385 | 25.04355 | 36842 ft | 447 kts | 359° |
| 2026-04-16 10:25 | 62.37500 | 25.04471 | 37044 ft | 447 kts | 0° |
| 2026-04-16 10:26 | 62.40612 | 25.04585 | 37251 ft | 447 kts | 360° |
| 2026-04-16 10:26 | 62.43716 | 25.04702 | 37454 ft | 446 kts | 359° |
| 2026-04-16 10:26 | 62.46821 | 25.04818 | 37645 ft | 446 kts | 359° |
| 2026-04-16 10:26 | 62.49922 | 25.04937 | 37846 ft | 446 kts | 359° |
| 2026-04-16 10:27 | 62.53022 | 25.05066 | 38032 ft | 445 kts | 0° |
| 2026-04-16 10:27 | 62.56117 | 25.05194 | 38221 ft | 445 kts | 359° |
| 2026-04-16 10:27 | 62.62319 | 25.05434 | 38260 ft | 444 kts | 359° |
| 2026-04-16 10:28 | 62.68510 | 25.05675 | 38260 ft | 444 kts | 359° |
| 2026-04-16 10:28 | 62.74691 | 25.05910 | 38266 ft | 445 kts | 359° |
| 2026-04-16 10:29 | 62.80860 | 25.06147 | 38263 ft | 445 kts | 359° |
| 2026-04-16 10:29 | 62.87059 | 25.06393 | 38268 ft | 445 kts | 359° |
| 2026-04-16 10:30 | 62.93254 | 25.06647 | 38270 ft | 445 kts | 0° |
| 2026-04-16 10:30 | 62.98406 | 25.06862 | 38267 ft | 445 kts | 359° |
| 2026-04-16 10:31 | 63.05621 | 25.07159 | 38271 ft | 445 kts | 359° |
| 2026-04-16 10:31 | 63.10777 | 25.07348 | 38278 ft | 445 kts | 360° |
| 2026-04-16 10:32 | 63.16975 | 25.07580 | 38283 ft | 444 kts | 360° |
| 2026-04-16 10:32 | 63.23157 | 25.07847 | 38282 ft | 444 kts | 360° |
| 2026-04-16 10:33 | 63.29343 | 25.08106 | 38287 ft | 443 kts | 0° |
| 2026-04-16 10:33 | 63.35471 | 25.08364 | 38285 ft | 443 kts | 360° |
| 2026-04-16 10:34 | 63.41640 | 25.08621 | 38290 ft | 443 kts | 360° |
| 2026-04-16 10:34 | 63.47806 | 25.08868 | 38286 ft | 443 kts | 360° |
| 2026-04-16 10:35 | 63.53988 | 25.09120 | 38280 ft | 443 kts | 360° |
| 2026-04-16 10:35 | 63.60118 | 25.09360 | 38280 ft | 443 kts | 360° |
| 2026-04-16 10:36 | 63.66293 | 25.09612 | 38282 ft | 443 kts | 360° |
| 2026-04-16 10:36 | 63.72429 | 25.09877 | 38283 ft | 443 kts | 360° |
| 2026-04-16 10:37 | 63.78589 | 25.10139 | 38289 ft | 443 kts | 359° |
| 2026-04-16 10:37 | 63.84759 | 25.10390 | 38285 ft | 443 kts | 359° |
| 2026-04-16 10:38 | 63.90928 | 25.10649 | 38285 ft | 443 kts | 359° |
| 2026-04-16 10:38 | 63.97061 | 25.10913 | 38285 ft | 443 kts | 359° |
| 2026-04-16 10:39 | 64.03243 | 25.11166 | 38285 ft | 443 kts | 359° |
| 2026-04-16 10:39 | 64.09407 | 25.11439 | 38296 ft | 443 kts | 359° |
| 2026-04-16 10:40 | 64.15565 | 25.11701 | 38294 ft | 442 kts | 359° |
| 2026-04-16 10:40 | 64.21691 | 25.11959 | 38301 ft | 442 kts | 359° |
| 2026-04-16 10:41 | 64.27849 | 25.12227 | 38299 ft | 442 kts | 359° |
| 2026-04-16 10:41 | 64.33994 | 25.12484 | 38298 ft | 441 kts | 359° |
| 2026-04-16 10:42 | 64.40140 | 25.12762 | 38302 ft | 441 kts | 359° |
| 2026-04-16 10:42 | 64.46253 | 25.12982 | 38306 ft | 441 kts | 358° |
| 2026-04-16 10:43 | 64.52414 | 25.12974 | 38302 ft | 442 kts | 358° |
| 2026-04-16 10:43 | 64.58584 | 25.12897 | 38299 ft | 442 kts | 358° |
| 2026-04-16 10:44 | 64.64720 | 25.12865 | 38302 ft | 443 kts | 358° |
| 2026-04-16 10:44 | 64.70897 | 25.12867 | 38304 ft | 443 kts | 358° |
| 2026-04-16 10:45 | 64.77069 | 25.12893 | 38330 ft | 443 kts | 358° |
| 2026-04-16 10:45 | 64.83228 | 25.12913 | 38345 ft | 440 kts | 359° |
| 2026-04-16 10:46 | 64.89287 | 25.12919 | 38342 ft | 437 kts | 359° |
| 2026-04-16 10:46 | 64.95365 | 25.12923 | 38335 ft | 434 kts | 359° |
| 2026-04-16 10:47 | 65.01382 | 25.12924 | 38331 ft | 433 kts | 358° |
| 2026-04-16 10:47 | 65.07420 | 25.12918 | 38328 ft | 432 kts | 358° |
| 2026-04-16 10:48 | 65.13427 | 25.12925 | 38345 ft | 431 kts | 358° |
| 2026-04-16 10:48 | 65.19428 | 25.12927 | 38335 ft | 430 kts | 358° |
| 2026-04-16 10:49 | 65.25371 | 25.12884 | 38321 ft | 429 kts | 358° |
| 2026-04-16 10:49 | 65.31342 | 25.12846 | 38318 ft | 428 kts | 358° |
| 2026-04-16 10:50 | 65.37317 | 25.12810 | 38315 ft | 428 kts | 358° |
| 2026-04-16 10:50 | 65.43236 | 25.12786 | 38312 ft | 428 kts | 358° |
| 2026-04-16 10:51 | 65.49206 | 25.12763 | 38319 ft | 427 kts | 358° |
| 2026-04-16 10:51 | 65.55158 | 25.12726 | 38308 ft | 427 kts | 358° |
| 2026-04-16 10:52 | 65.61081 | 25.12688 | 38064 ft | 427 kts | 358° |
| 2026-04-16 10:52 | 65.64047 | 25.12670 | 37790 ft | 426 kts | 358° |
| 2026-04-16 10:52 | 65.67007 | 25.12650 | 37522 ft | 425 kts | 358° |
| 2026-04-16 10:53 | 65.69958 | 25.12631 | 37255 ft | 423 kts | 358° |
| 2026-04-16 10:53 | 65.72901 | 25.12617 | 36988 ft | 422 kts | 358° |
| 2026-04-16 10:53 | 65.75841 | 25.12604 | 36720 ft | 421 kts | 358° |
| 2026-04-16 10:53 | 65.78783 | 25.12590 | 36465 ft | 420 kts | 358° |
| 2026-04-16 10:54 | 65.81705 | 25.12573 | 36213 ft | 419 kts | 358° |
| 2026-04-16 10:54 | 65.84617 | 25.12556 | 35961 ft | 418 kts | 358° |
| 2026-04-16 10:54 | 65.87526 | 25.12543 | 35709 ft | 417 kts | 358° |
| 2026-04-16 10:54 | 65.90395 | 25.12530 | 35462 ft | 416 kts | 358° |
| 2026-04-16 10:55 | 65.93288 | 25.12518 | 35219 ft | 415 kts | 358° |
| 2026-04-16 10:55 | 65.96171 | 25.12499 | 34975 ft | 414 kts | 358° |
| 2026-04-16 10:55 | 65.99049 | 25.12476 | 34551 ft | 413 kts | 358° |
| 2026-04-16 10:55 | 66.01934 | 25.12453 | 33787 ft | 412 kts | 358° |
| 2026-04-16 10:56 | 66.04781 | 25.12436 | 33297 ft | 404 kts | 358° |
| 2026-04-16 10:56 | 66.07578 | 25.12426 | 32752 ft | 399 kts | 358° |
| 2026-04-16 10:56 | 66.10333 | 25.12419 | 32222 ft | 393 kts | 357° |
| 2026-04-16 10:56 | 66.13016 | 25.12271 | 31681 ft | 388 kts | 355° |
| 2026-04-16 10:57 | 66.15695 | 25.11893 | 31198 ft | 383 kts | 353° |
| 2026-04-16 10:57 | 66.18342 | 25.11382 | 30654 ft | 379 kts | 352° |
| 2026-04-16 10:57 | 66.20955 | 25.10822 | 30103 ft | 374 kts | 352° |
| 2026-04-16 10:57 | 66.23534 | 25.10278 | 29587 ft | 368 kts | 352° |
| 2026-04-16 10:58 | 66.26066 | 25.09777 | 29079 ft | 362 kts | 353° |
| 2026-04-16 10:58 | 66.28558 | 25.09318 | 28608 ft | 356 kts | 353° |
| 2026-04-16 10:58 | 66.31000 | 25.08893 | 28143 ft | 352 kts | 353° |
| 2026-04-16 10:58 | 66.33432 | 25.08480 | 27688 ft | 348 kts | 353° |
| 2026-04-16 10:59 | 66.35842 | 25.08069 | 27232 ft | 345 kts | 352° |
| 2026-04-16 10:59 | 66.38229 | 25.07658 | 26785 ft | 341 kts | 352° |
| 2026-04-16 10:59 | 66.40585 | 25.07247 | 26356 ft | 338 kts | 352° |
| 2026-04-16 10:59 | 66.42927 | 25.06832 | 25943 ft | 334 kts | 352° |
| 2026-04-16 11:00 | 66.45206 | 25.06426 | 25541 ft | 331 kts | 352° |
| 2026-04-16 11:00 | 66.47496 | 25.06019 | 25136 ft | 328 kts | 351° |
| 2026-04-16 11:00 | 66.49776 | 25.05613 | 24735 ft | 326 kts | 351° |
| 2026-04-16 11:00 | 66.52037 | 25.05210 | 24341 ft | 325 kts | 351° |
| 2026-04-16 11:01 | 66.54291 | 25.04809 | 23969 ft | 324 kts | 351° |
| 2026-04-16 11:01 | 66.56537 | 25.04406 | 23484 ft | 322 kts | 350° |
| 2026-04-16 11:01 | 66.58760 | 25.04009 | 23070 ft | 318 kts | 350° |
| 2026-04-16 11:01 | 66.60950 | 25.03613 | 22672 ft | 314 kts | 350° |
| 2026-04-16 11:02 | 66.63115 | 25.03218 | 22275 ft | 310 kts | 350° |
| 2026-04-16 11:02 | 66.65230 | 25.02833 | 21877 ft | 308 kts | 350° |
| 2026-04-16 11:02 | 66.67360 | 25.02448 | 21470 ft | 305 kts | 350° |
| 2026-04-16 11:02 | 66.69477 | 25.02067 | 21076 ft | 304 kts | 350° |
| 2026-04-16 11:03 | 66.71582 | 25.01690 | 20666 ft | 302 kts | 350° |
| 2026-04-16 11:03 | 66.73675 | 25.01315 | 20266 ft | 301 kts | 350° |
| 2026-04-16 11:03 | 66.77834 | 25.00542 | 19464 ft | 298 kts | 350° |
| 2026-04-16 11:04 | 66.79882 | 25.00165 | 19079 ft | 297 kts | 350° |
| 2026-04-16 11:04 | 66.81952 | 24.99786 | 18678 ft | 296 kts | 350° |
| 2026-04-16 11:04 | 66.84006 | 24.99408 | 18250 ft | 296 kts | 350° |
| 2026-04-16 11:04 | 66.86053 | 24.99028 | 17852 ft | 293 kts | 350° |
| 2026-04-16 11:05 | 66.88081 | 24.98649 | 17464 ft | 291 kts | 350° |
| 2026-04-16 11:05 | 66.90095 | 24.98278 | 17141 ft | 289 kts | 350° |
| 2026-04-16 11:05 | 66.92095 | 24.97908 | 16705 ft | 288 kts | 351° |
| 2026-04-16 11:05 | 66.94086 | 24.97539 | 16353 ft | 285 kts | 351° |
| 2026-04-16 11:06 | 66.96028 | 24.97184 | 15992 ft | 283 kts | 351° |
| 2026-04-16 11:06 | 66.97990 | 24.96826 | 15621 ft | 282 kts | 351° |
| 2026-04-16 11:06 | 66.99944 | 24.96467 | 15246 ft | 281 kts | 351° |
| 2026-04-16 11:06 | 67.01892 | 24.96107 | 14884 ft | 280 kts | 351° |
| 2026-04-16 11:07 | 67.03834 | 24.95748 | 14516 ft | 279 kts | 352° |
| 2026-04-16 11:07 | 67.05763 | 24.95388 | 14192 ft | 277 kts | 352° |
| 2026-04-16 11:07 | 67.07687 | 24.95027 | 13824 ft | 275 kts | 352° |
| 2026-04-16 11:07 | 67.09603 | 24.94670 | 13383 ft | 275 kts | 352° |
| 2026-04-16 11:08 | 67.11508 | 24.94313 | 13005 ft | 274 kts | 352° |
| 2026-04-16 11:08 | 67.13404 | 24.93956 | 12633 ft | 272 kts | 352° |
| 2026-04-16 11:08 | 67.15288 | 24.93604 | 12264 ft | 270 kts | 353° |
| 2026-04-16 11:08 | 67.17137 | 24.93256 | 11899 ft | 269 kts | 353° |
| 2026-04-16 11:09 | 67.19005 | 24.92896 | 11531 ft | 268 kts | 353° |
| 2026-04-16 11:09 | 67.20861 | 24.92533 | 11127 ft | 267 kts | 353° |
| 2026-04-16 11:09 | 67.22729 | 24.92172 | 10716 ft | 268 kts | 353° |
| 2026-04-16 11:09 | 67.24572 | 24.91825 | 10371 ft | 265 kts | 354° |
| 2026-04-16 11:10 | 67.26423 | 24.91951 | 9951 ft | 266 kts | 2° |
| 2026-04-16 11:10 | 67.28258 | 24.92320 | 9496 ft | 261 kts | 1° |
| 2026-04-16 11:10 | 67.30070 | 24.92674 | 8761 ft | 259 kts | 2° |
| 2026-04-16 11:10 | 67.31847 | 24.93011 | 8038 ft | 258 kts | 2° |
| 2026-04-16 11:11 | 67.33635 | 24.93345 | 7331 ft | 256 kts | 2° |
| 2026-04-16 11:11 | 67.35408 | 24.93680 | 6651 ft | 254 kts | 2° |
| 2026-04-16 11:11 | 67.37098 | 24.94009 | 6471 ft | 232 kts | 2° |
| 2026-04-16 11:11 | 67.38638 | 24.94310 | 6332 ft | 212 kts | 2° |
| 2026-04-16 11:12 | 67.40092 | 24.94586 | 5937 ft | 213 kts | 2° |
| 2026-04-16 11:12 | 67.41601 | 24.94869 | 5412 ft | 220 kts | 2° |
| 2026-04-16 11:12 | 67.43090 | 24.95152 | 5179 ft | 213 kts | 3° |
| 2026-04-16 11:12 | 67.44542 | 24.95436 | 5052 ft | 204 kts | 3° |
| 2026-04-16 11:13 | 67.45960 | 24.95712 | 4943 ft | 203 kts | 2° |
| 2026-04-16 11:13 | 67.47351 | 24.95977 | 4851 ft | 201 kts | 2° |
| 2026-04-16 11:13 | 67.48747 | 24.96241 | 4765 ft | 201 kts | 2° |
| 2026-04-16 11:13 | 67.50139 | 24.96505 | 4663 ft | 201 kts | 3° |
| 2026-04-16 11:14 | 67.51526 | 24.96546 | 4584 ft | 199 kts | 351° |
| 2026-04-16 11:14 | 67.52430 | 24.96088 | 4484 ft | 200 kts | 347° |
| 2026-04-16 11:14 | 67.53775 | 24.95240 | 4234 ft | 196 kts | 346° |
| 2026-04-16 11:14 | 67.55063 | 24.94408 | 3957 ft | 186 kts | 346° |
| 2026-04-16 11:15 | 67.56282 | 24.93623 | 3697 ft | 177 kts | 346° |
| 2026-04-16 11:15 | 67.57465 | 24.92861 | 3414 ft | 173 kts | 346° |
| 2026-04-16 11:15 | 67.58636 | 24.92109 | 3134 ft | 173 kts | 346° |
| 2026-04-16 11:15 | 67.59795 | 24.91362 | 2852 ft | 170 kts | 346° |
| 2026-04-16 11:16 | 67.60904 | 24.90646 | 2596 ft | 158 kts | 346° |
| 2026-04-16 11:16 | 67.61927 | 24.89985 | 2377 ft | 144 kts | 346° |
| 2026-04-16 11:16 | 67.62862 | 24.89381 | 2140 ft | 134 kts | 346° |
| 2026-04-16 11:16 | 67.63747 | 24.88809 | 1928 ft | 130 kts | 346° |
| 2026-04-16 11:17 | 67.64625 | 24.88240 | 1723 ft | 130 kts | 346° |
| 2026-04-16 11:17 | 67.65497 | 24.87676 | 1508 ft | 127 kts | 346° |
| 2026-04-16 11:17 | 67.66357 | 24.87119 | 1305 ft | 126 kts | 347° |
| 2026-04-16 11:17 | 67.67220 | 24.86561 | 1127 ft | 128 kts | 346° |
| 2026-04-16 11:18 | 67.68092 | 24.85996 | 921 ft | 127 kts | 346° |
| 2026-04-16 11:18 | 67.68961 | 24.85416 | 689 ft | 130 kts | 347° |
| 2026-04-16 11:18 | 67.69771 | 24.84903 | 638 ft | 103 kts | 346° |
| 2026-04-16 11:18 | 67.70298 | 24.84561 | 639 ft | 62 kts | 346° |
| 2026-04-16 11:19 | 67.70581 | 24.84379 | 642 ft | 24 kts | 346° |
| 2026-04-16 11:19 | 67.70696 | 24.84399 | 640 ft | 15 kts | 39° |
| 2026-04-16 11:19 | 67.70740 | 24.84643 | 643 ft | 16 kts | 94° |
| 2026-04-16 11:19 | 67.70656 | 24.84773 | 640 ft | 14 kts | 166° |
| 2026-04-16 11:20 | 67.70563 | 24.84835 | 642 ft | 13 kts | 166° |
| 2026-04-16 11:20 | 67.70466 | 24.84898 | 639 ft | 19 kts | 166° |
| 2026-04-16 11:20 | 67.70321 | 24.84991 | 646 ft | 21 kts | 166° |
| 2026-04-16 11:20 | 67.70186 | 24.85080 | 640 ft | 19 kts | 166° |
| 2026-04-16 11:21 | 67.70066 | 24.85160 | 641 ft | 17 kts | 166° |
| 2026-04-16 11:21 | 67.69951 | 24.85238 | 640 ft | 17 kts | 165° |
| 2026-04-16 11:21 | 67.69839 | 24.85315 | 643 ft | 17 kts | 165° |
| 2026-04-16 11:21 | 67.69730 | 24.85392 | 640 ft | 16 kts | 165° |
| 2026-04-16 11:22 | 67.69626 | 24.85464 | 642 ft | 14 kts | 166° |
| 2026-04-16 11:22 | 67.69537 | 24.85527 | 640 ft | 12 kts | 160° |
| 2026-04-16 11:22 | 67.69494 | 24.85674 | 642 ft | 7 kts | 122° |
| 2026-04-16 11:22 | 67.69480 | 24.85733 | 642 ft | 0 kts | 123° |